createdAt,value
2017-08-24T09:51:41.582Z,1031.2
2017-08-24T09:52:44.764Z,1030.7
2017-08-24T09:53:46.724Z,1030.1
2017-08-24T09:54:48.133Z,1028.9
2017-08-24T09:55:50.094Z,1028.0
2017-08-24T09:56:51.500Z,1027.7
2017-08-24T09:57:52.984Z,1027.6
2017-08-24T09:58:54.394Z,1027.6
2017-08-24T09:59:56.262Z,1027.6
2017-08-24T10:00:57.666Z,1027.0
2017-08-24T10:01:59.169Z,1026.5
2017-08-24T10:03:00.576Z,1026.3
2017-08-24T10:04:02.035Z,1025.9
2017-08-24T10:05:03.443Z,1025.4
2017-08-24T10:06:04.851Z,1025.2
2017-08-24T10:07:06.357Z,1025.3
2017-08-24T10:08:07.765Z,1025.6
2017-08-24T10:09:09.170Z,1027.2
2017-08-24T10:10:10.678Z,1029.3
2017-08-24T10:11:12.088Z,1031.5
2017-08-24T10:12:13.494Z,1030.1
2017-08-24T10:13:14.998Z,1029.7
2017-08-24T10:14:16.403Z,1030.0
2017-08-24T10:15:17.812Z,1029.6
2017-08-24T10:16:19.320Z,1029.5
2017-08-24T10:17:20.735Z,1028.6
2017-08-24T10:18:22.138Z,1028.1
2017-08-24T10:19:23.640Z,1027.9
2017-08-24T10:20:25.047Z,1027.6
2017-08-24T10:21:26.456Z,1027.4
2017-08-24T10:22:27.963Z,1029.3
2017-08-24T10:23:29.368Z,1032.7
2017-08-24T10:24:30.773Z,1029.5
2017-08-24T10:25:32.296Z,1031.7
2017-08-24T10:26:33.687Z,1037.3
2017-08-24T10:27:35.097Z,1032.4
2017-08-24T10:28:36.541Z,1031.3
2017-08-24T10:29:38.070Z,1038.5
2017-08-24T10:30:39.522Z,1032.9
2017-08-24T10:31:40.987Z,1031.8
2017-08-24T10:32:42.326Z,1031.4
2017-08-24T10:33:43.797Z,1032.0
2017-08-24T10:34:45.205Z,1030.6
2017-08-24T10:35:46.679Z,1029.6
2017-08-24T10:36:48.084Z,1028.7
2017-08-24T10:37:49.567Z,1028.1
2017-08-24T10:38:51.354Z,1027.6
2017-08-24T10:39:52.856Z,1027.4
2017-08-24T10:40:54.264Z,1027.3
2017-08-24T10:41:55.741Z,1026.1
2017-08-24T10:42:57.142Z,1025.2
2017-08-24T10:43:58.619Z,1024.3
2017-08-24T10:45:00.022Z,1023.8
2017-08-24T10:46:01.497Z,1023.5
2017-08-24T10:47:02.906Z,1023.3
2017-08-24T10:48:04.378Z,1023.4
2017-08-24T10:49:05.785Z,1023.6
2017-08-24T10:50:07.190Z,1024.7
2017-08-24T10:51:08.699Z,1024.0
2017-08-24T10:52:10.103Z,1023.2
2017-08-24T10:53:11.507Z,1022.7
2017-08-24T10:54:13.023Z,1022.3
2017-08-24T10:55:14.428Z,1021.9
2017-08-24T10:56:15.836Z,1021.4
2017-08-24T10:57:17.342Z,1021.2
2017-08-24T10:58:18.748Z,1020.4
2017-08-24T10:59:20.153Z,1019.8
2017-08-24T11:00:21.663Z,1019.2
2017-08-24T11:01:23.068Z,1018.6
2017-08-24T11:02:24.545Z,1018.1
2017-08-24T11:03:25.950Z,1017.6
2017-08-24T11:04:27.491Z,1017.1
2017-08-24T11:05:28.886Z,1016.7
2017-08-24T11:06:30.299Z,1016.5
2017-08-24T11:07:31.746Z,1016.5
2017-08-24T11:08:33.178Z,1016.5
2017-08-24T11:09:34.590Z,1016.9
2017-08-24T11:10:36.066Z,1017.2
2017-08-24T11:11:37.472Z,1017.2
2017-08-24T11:12:38.959Z,1016.9
2017-08-24T11:13:40.347Z,1016.8
2017-08-24T11:14:41.704Z,1017.1
2017-08-24T11:15:43.188Z,1017.1
2017-08-24T11:16:44.595Z,1017.0
2017-08-24T11:17:46.000Z,1017.5
2017-08-24T11:18:47.485Z,1017.4
2017-08-24T11:19:48.890Z,1017.2
2017-08-24T11:20:50.300Z,1017.2
2017-08-24T11:21:51.810Z,1018.4
2017-08-24T11:22:53.216Z,1018.0
2017-08-24T11:23:54.623Z,1017.6
2017-08-24T11:24:56.811Z,1017.6
2017-08-24T11:25:58.234Z,1018.2
2017-08-24T11:26:59.646Z,1019.6
2017-08-24T11:28:01.069Z,1023.4
2017-08-24T11:29:02.766Z,1028.5
2017-08-24T11:30:04.184Z,1032.3
2017-08-24T11:31:05.697Z,1034.3
2017-08-24T11:32:07.105Z,1037.8
2017-08-24T11:33:08.583Z,1037.6
2017-08-24T11:34:09.989Z,1037.5
2017-08-24T11:35:11.843Z,1038.6
2017-08-24T11:36:13.254Z,1040.5
2017-08-24T11:37:14.662Z,1041.5
2017-08-24T11:38:16.089Z,1042.1
2017-08-24T11:39:17.497Z,1042.6
2017-08-24T11:40:18.903Z,1042.1
2017-08-24T11:41:20.418Z,1042.6
2017-08-24T11:42:21.822Z,1043.8
2017-08-24T11:43:23.290Z,1045.4
2017-08-24T11:44:24.701Z,1046.3
2017-08-24T11:45:26.170Z,1047.2
2017-08-24T11:46:27.595Z,1048.0
2017-08-24T11:47:29.058Z,1048.2
2017-08-24T11:48:30.467Z,1048.7
2017-08-24T11:49:31.943Z,1049.3
2017-08-24T11:50:33.350Z,1050.0
2017-08-24T11:51:34.776Z,1051.0
2017-08-24T11:52:36.478Z,1051.8
2017-08-24T11:53:37.918Z,1052.6
2017-08-24T11:54:39.321Z,1053.7
2017-08-24T11:55:40.882Z,1055.3
2017-08-24T11:56:42.299Z,1056.4
2017-08-24T11:57:43.767Z,1057.8
2017-08-24T11:58:45.179Z,1059.0
2017-08-24T11:59:46.647Z,1059.7
2017-08-24T12:00:48.077Z,1056.2
2017-08-24T12:01:49.541Z,1053.7
2017-08-24T12:02:50.950Z,1054.7
2017-08-24T12:03:52.409Z,1054.0
2017-08-24T12:04:53.820Z,1052.8
2017-08-24T12:05:55.244Z,1051.2
2017-08-24T12:06:56.761Z,1049.4
2017-08-24T12:07:58.171Z,1047.3
2017-08-24T12:08:59.600Z,1045.5
2017-08-24T12:10:01.056Z,1044.4
2017-08-24T12:11:02.467Z,1043.5
2017-08-24T12:12:03.870Z,1041.7
2017-08-24T12:13:05.374Z,1039.9
2017-08-24T12:14:06.783Z,1038.3
2017-08-24T12:15:08.296Z,1036.9
2017-08-24T12:16:09.704Z,1036.2
2017-08-24T12:17:11.113Z,1035.5
2017-08-24T12:18:12.581Z,1036.1
2017-08-24T12:19:14.007Z,1037.8
2017-08-24T12:20:15.415Z,1038.7
2017-08-24T12:21:16.899Z,1038.8
2017-08-24T12:22:18.312Z,1038.4
2017-08-24T12:23:19.782Z,1038.1
2017-08-24T12:24:21.201Z,1037.8
2017-08-24T12:25:22.662Z,1037.8
2017-08-24T12:26:24.079Z,1038.3
2017-08-24T12:27:25.489Z,1038.6
2017-08-24T12:28:26.983Z,1039.4
2017-08-24T12:29:28.394Z,1041.1
2017-08-24T12:30:29.805Z,1042.7
2017-08-24T12:31:31.303Z,1040.4
2017-08-24T12:32:32.712Z,1037.8
2017-08-24T12:33:34.119Z,1035.7
2017-08-24T12:34:35.625Z,1033.8
2017-08-24T12:35:37.036Z,1032.4
2017-08-24T12:36:38.444Z,1030.8
2017-08-24T12:37:39.949Z,1029.3
2017-08-24T12:38:41.363Z,1028.0
2017-08-24T12:39:42.846Z,1028.8
2017-08-24T12:40:44.256Z,1032.3
2017-08-24T12:41:45.712Z,1034.9
2017-08-24T12:42:47.124Z,1035.2
2017-08-24T12:43:48.699Z,1032.7
2017-08-24T12:44:50.108Z,1031.1
2017-08-24T12:45:51.519Z,1030.1
2017-08-24T12:46:52.929Z,1030.6
2017-08-24T12:47:54.345Z,1032.1
2017-08-24T12:48:55.757Z,1033.7
2017-08-24T12:49:57.236Z,1034.9
2017-08-24T12:50:58.646Z,1035.5
2017-08-24T12:52:00.053Z,1035.2
2017-08-24T12:53:01.555Z,1033.6
2017-08-24T12:54:02.965Z,1031.9
2017-08-24T12:55:04.372Z,1030.6
2017-08-24T12:56:05.875Z,1029.1
2017-08-24T12:57:07.316Z,1028.0
2017-08-24T12:58:08.769Z,1028.8
2017-08-24T12:59:10.199Z,1029.0
2017-08-24T13:00:11.605Z,1029.1
2017-08-24T13:01:13.013Z,1029.1
2017-08-24T13:02:14.542Z,1028.7
2017-08-24T13:03:15.973Z,1027.1
2017-08-24T13:04:17.379Z,1025.8
2017-08-24T13:05:18.842Z,1026.3
2017-08-24T13:06:20.250Z,1026.1
2017-08-24T13:07:21.694Z,1024.8
2017-08-24T13:08:23.164Z,1023.6
2017-08-24T13:09:24.573Z,1022.5
2017-08-24T13:10:25.997Z,1021.6
2017-08-24T13:11:27.502Z,1020.6
2017-08-24T13:12:29.059Z,1019.7
2017-08-24T13:13:30.571Z,1019.2
2017-08-24T13:14:31.992Z,1019.3
2017-08-24T13:15:34.475Z,1018.8
2017-08-24T13:16:35.884Z,1018.4
2017-08-24T13:17:37.294Z,1017.8
2017-08-24T13:18:38.797Z,1018.7
2017-08-24T13:19:40.207Z,1019.3
2017-08-24T13:20:41.614Z,1019.5
2017-08-24T13:21:43.120Z,1019.2
2017-08-24T13:22:44.524Z,1018.7
2017-08-24T13:23:45.935Z,1018.0
2017-08-24T13:24:47.342Z,1017.4
2017-08-24T13:25:48.755Z,1016.7
2017-08-24T13:26:50.160Z,1016.2
2017-08-24T13:27:51.764Z,1015.6
2017-08-24T13:28:53.169Z,1015.0
2017-08-24T13:29:54.574Z,1014.4
2017-08-24T13:30:56.085Z,1013.7
2017-08-24T13:31:57.496Z,1013.0
2017-08-24T13:32:58.903Z,1012.2
2017-08-24T13:34:00.410Z,1011.7
2017-08-24T13:35:01.815Z,1011.4
2017-08-24T13:36:03.287Z,1011.1
2017-08-24T13:37:04.692Z,1011.0
2017-08-24T13:38:06.168Z,1010.9
2017-08-24T13:39:07.997Z,1010.9
2017-08-24T13:40:09.501Z,1011.1
2017-08-24T13:41:10.930Z,1011.2
2017-08-24T13:42:12.621Z,1011.2
2017-08-24T13:43:14.028Z,1011.2
2017-08-24T13:44:15.659Z,1011.2
2017-08-24T13:45:17.077Z,1011.1
2017-08-24T13:46:18.584Z,1010.9
2017-08-24T13:47:19.992Z,1010.8
2017-08-24T13:48:21.670Z,1010.5
2017-08-24T13:49:23.073Z,1010.2
2017-08-24T13:50:24.755Z,1009.9
2017-08-24T13:51:26.170Z,1009.5
2017-08-24T13:52:27.856Z,1009.1
2017-08-24T13:53:29.245Z,1008.7
2017-08-24T13:54:30.665Z,1008.5
2017-08-24T13:55:32.160Z,1008.4
2017-08-24T13:56:33.566Z,1008.4
2017-08-24T13:57:34.982Z,1008.4
2017-08-24T13:58:36.480Z,1008.2
2017-08-24T13:59:37.917Z,1008.0
2017-08-24T14:00:39.326Z,1008.1
2017-08-24T14:01:41.009Z,1008.1
2017-08-24T14:02:42.414Z,1008.2
2017-08-24T14:03:43.819Z,1008.2
2017-08-24T14:04:45.328Z,1008.2
2017-08-24T14:05:46.736Z,1008.0
2017-08-24T14:06:48.155Z,1007.9
2017-08-24T14:07:49.726Z,1007.8
2017-08-24T14:08:51.112Z,1007.6
2017-08-24T14:09:52.632Z,1007.3
2017-08-24T14:10:54.036Z,1007.3
2017-08-24T14:11:55.513Z,1007.2
2017-08-24T14:12:56.960Z,1007.2
2017-08-24T14:13:58.366Z,1007.2
2017-08-24T14:14:59.833Z,1007.2
2017-08-24T14:16:01.242Z,1007.1
2017-08-24T14:17:02.648Z,1007.0
2017-08-24T14:18:04.157Z,1007.0
2017-08-24T14:19:05.561Z,1007.1
2017-08-24T14:20:06.975Z,1007.2
2017-08-24T14:21:08.476Z,1007.2
2017-08-24T14:22:09.881Z,1007.1
2017-08-24T14:23:11.293Z,1006.9
2017-08-24T14:24:12.797Z,1006.7
2017-08-24T14:25:14.202Z,1006.5
2017-08-24T14:26:15.612Z,1006.2
2017-08-24T14:27:17.116Z,1006.0
2017-08-24T14:28:18.521Z,1005.9
2017-08-24T14:29:19.999Z,1005.8
2017-08-24T14:30:21.407Z,1005.6
2017-08-24T14:31:22.873Z,1005.4
2017-08-24T14:32:24.283Z,1005.2
2017-08-24T14:33:25.688Z,1005.1
2017-08-24T14:34:27.197Z,1005.0
2017-08-24T14:35:28.604Z,1004.8
2017-08-24T14:36:30.010Z,1004.8
2017-08-24T14:37:31.520Z,1004.7
2017-08-24T14:38:32.931Z,1004.7
2017-08-24T14:39:34.414Z,1004.8
2017-08-24T14:40:35.822Z,1005.0
2017-08-24T14:41:37.282Z,1005.0
2017-08-24T14:42:38.687Z,1005.0
2017-08-24T14:43:40.162Z,1004.8
2017-08-24T14:44:41.572Z,1004.5
2017-08-24T14:45:43.041Z,1004.3
2017-08-24T14:46:44.457Z,1004.1
2017-08-24T14:47:45.923Z,1003.8
2017-08-24T14:48:47.332Z,1003.6
2017-08-24T14:49:48.736Z,1003.3
2017-08-24T14:50:50.310Z,1003.0
2017-08-24T14:51:51.716Z,1002.8
2017-08-24T14:52:53.121Z,1002.6
2017-08-24T14:53:54.563Z,1002.4
2017-08-24T14:54:55.971Z,1002.3
2017-08-24T14:55:57.444Z,1002.2
2017-08-24T14:56:58.853Z,1002.2
2017-08-24T14:58:00.336Z,1002.2
2017-08-24T14:59:01.742Z,1002.3
2017-08-24T15:00:03.204Z,1002.3
2017-08-24T15:01:04.616Z,1002.3
2017-08-24T15:02:06.089Z,1002.2
2017-08-24T15:03:07.494Z,1002.2
2017-08-24T15:04:08.970Z,1002.1
2017-08-24T15:05:10.460Z,1002.0
2017-08-24T15:06:11.865Z,1002.1
2017-08-24T15:07:13.275Z,1002.1
2017-08-24T15:08:14.730Z,1002.1
2017-08-24T15:09:16.133Z,1002.2
2017-08-24T15:10:17.546Z,1002.3
2017-08-24T15:11:19.052Z,1002.3
2017-08-24T15:12:20.454Z,1002.3
2017-08-24T15:13:21.862Z,1002.3
2017-08-24T15:14:23.373Z,1002.3
2017-08-24T15:15:24.786Z,1002.3
2017-08-24T15:16:26.189Z,1002.2
2017-08-24T15:17:28.552Z,1002.2
2017-08-24T15:18:30.554Z,1002.2
2017-08-24T15:19:32.600Z,1002.2
2017-08-24T15:20:34.568Z,1002.1
2017-08-24T15:21:36.317Z,1002.1
2017-08-24T15:22:37.720Z,1002.2
2017-08-24T15:23:39.313Z,1002.3
2017-08-24T15:24:40.719Z,1002.3
2017-08-24T15:25:42.127Z,1002.4
2017-08-24T15:26:43.642Z,1002.4
2017-08-24T15:27:45.051Z,1002.6
2017-08-24T15:28:46.470Z,1002.5
2017-08-24T15:29:47.944Z,1002.4
2017-08-24T15:30:49.354Z,1002.3
2017-08-24T15:31:50.829Z,1002.3
2017-08-24T15:32:52.234Z,1002.2
2017-08-24T15:33:53.638Z,1002.1
2017-08-24T15:34:55.146Z,1002.1
2017-08-24T15:35:56.551Z,1002.0
2017-08-24T15:36:57.958Z,1001.9
2017-08-24T15:37:59.468Z,1001.7
2017-08-24T15:39:00.870Z,1001.5
2017-08-24T15:40:02.275Z,1001.4
2017-08-24T15:41:03.786Z,1001.3
2017-08-24T15:42:05.193Z,1001.2
2017-08-24T15:43:06.601Z,1001.1
2017-08-24T15:44:08.109Z,1001.3
2017-08-24T15:45:09.515Z,1001.3
2017-08-24T15:46:10.920Z,1001.3
2017-08-24T15:47:12.432Z,1001.4
2017-08-24T15:48:13.917Z,1001.4
2017-08-24T15:49:15.320Z,1001.5
2017-08-24T15:50:16.958Z,1001.6
2017-08-24T15:51:18.357Z,1001.6
2017-08-24T15:52:19.851Z,1001.5
2017-08-24T15:53:21.268Z,1001.6
2017-08-24T15:54:22.926Z,1001.6
2017-08-24T15:55:24.337Z,1001.6
2017-08-24T15:56:25.803Z,1001.5
2017-08-24T15:57:27.221Z,1001.6
2017-08-24T15:58:28.691Z,1001.5
2017-08-24T15:59:30.094Z,1001.6
2017-08-24T16:00:31.562Z,1001.5
2017-08-24T16:01:32.967Z,1001.4
2017-08-24T16:02:34.649Z,1001.3
2017-08-24T16:03:36.057Z,1001.2
2017-08-24T16:04:37.463Z,1001.2
2017-08-24T16:05:38.971Z,1001.1
2017-08-24T16:06:40.393Z,1001.1
2017-08-24T16:07:41.825Z,1001.1
2017-08-24T16:08:43.292Z,1001.0
2017-08-24T16:09:44.695Z,1000.9
2017-08-24T16:10:46.108Z,1000.9
2017-08-24T16:11:47.612Z,1000.9
2017-08-24T16:12:49.026Z,1000.9
2017-08-24T16:13:50.430Z,1000.8
2017-08-24T16:14:52.163Z,1000.8
2017-08-24T16:15:53.566Z,1000.9
2017-08-24T16:16:55.224Z,1000.9
2017-08-24T16:17:56.637Z,1001.0
2017-08-24T16:18:58.104Z,1001.0
2017-08-24T16:19:59.508Z,1001.1
2017-08-24T16:21:00.913Z,1001.1
2017-08-24T16:22:02.423Z,1001.1
2017-08-24T16:23:03.835Z,1001.1
2017-08-24T16:24:05.236Z,1001.1
2017-08-24T16:25:06.767Z,1001.1
2017-08-24T16:26:08.159Z,1001.1
2017-08-24T16:27:09.628Z,1001.2
2017-08-24T16:28:11.043Z,1001.1
2017-08-24T16:29:12.513Z,1001.1
2017-08-24T16:30:13.926Z,1001.0
2017-08-24T16:31:15.331Z,1001.0
2017-08-24T16:32:16.827Z,1001.0
2017-08-24T16:33:18.236Z,1001.0
2017-08-24T16:34:19.639Z,1001.0
2017-08-24T16:35:21.150Z,1000.9
2017-08-24T16:36:22.557Z,1000.9
2017-08-24T16:37:23.964Z,1001.0
2017-08-24T16:38:25.471Z,1001.0
2017-08-24T16:39:26.874Z,1001.0
2017-08-24T16:40:28.278Z,1001.1
2017-08-24T16:41:29.792Z,1001.1
2017-08-24T16:42:31.217Z,1001.2
2017-08-24T16:43:32.620Z,1001.3
2017-08-24T16:44:34.113Z,1001.3
2017-08-24T16:45:35.515Z,1001.4
2017-08-24T16:46:36.994Z,1001.4
2017-08-24T16:47:38.399Z,1001.5
2017-08-24T16:48:39.874Z,1001.5
2017-08-24T16:49:41.278Z,1001.5
2017-08-24T16:50:42.684Z,1001.5
2017-08-24T16:51:44.085Z,1001.5
2017-08-24T16:52:45.493Z,1001.4
2017-08-24T16:53:46.916Z,1001.4
2017-08-24T16:54:48.327Z,1001.4
2017-08-24T16:55:49.729Z,1001.3
2017-08-24T16:56:51.131Z,1001.4
2017-08-24T16:57:52.551Z,1001.3
2017-08-24T16:58:54.135Z,1001.2
2017-08-24T16:59:55.543Z,1001.2
2017-08-24T17:00:56.939Z,1001.1
2017-08-24T17:01:58.365Z,1001.1
2017-08-24T17:02:59.802Z,1001.0
2017-08-24T17:04:01.275Z,1001.0
2017-08-24T17:05:02.889Z,1001.0
2017-08-24T17:06:04.291Z,1001.0
2017-08-24T17:07:05.771Z,1001.0
2017-08-24T17:08:07.174Z,1001.0
2017-08-24T17:09:08.654Z,1000.9
2017-08-24T17:10:10.313Z,1000.9
2017-08-24T17:11:11.789Z,1000.9
2017-08-24T17:12:13.382Z,1000.9
2017-08-24T17:13:14.785Z,1000.9
2017-08-24T17:14:16.189Z,1000.8
2017-08-24T17:15:17.707Z,1000.8
2017-08-24T17:16:19.106Z,1000.8
2017-08-24T17:17:20.584Z,1000.7
2017-08-24T17:18:21.998Z,1000.7
2017-08-24T17:19:23.468Z,1000.8
2017-08-24T17:20:24.868Z,1000.8
2017-08-24T17:21:26.349Z,1000.7
2017-08-24T17:22:27.751Z,1000.7
2017-08-24T17:23:29.231Z,1000.7
2017-08-24T17:24:30.634Z,1000.7
2017-08-24T17:25:32.071Z,1000.7
2017-08-24T17:26:33.575Z,1000.7
2017-08-24T17:27:34.977Z,1000.7
2017-08-24T17:28:36.383Z,1000.7
2017-08-24T17:29:37.916Z,1000.6
2017-08-24T17:30:39.355Z,1000.6
2017-08-24T17:31:40.757Z,1000.6
2017-08-24T17:32:42.218Z,1000.5
2017-08-24T17:33:43.620Z,1000.4
2017-08-24T17:34:45.056Z,1000.3
2017-08-24T17:35:46.538Z,1000.3
2017-08-24T17:36:47.948Z,1000.2
2017-08-24T17:37:49.357Z,1000.2
2017-08-24T17:38:50.865Z,1000.1
2017-08-24T17:39:52.380Z,1000.0
2017-08-24T17:40:53.786Z,1000.0
2017-08-24T17:41:55.284Z,999.9
2017-08-24T17:42:56.691Z,999.9
2017-08-24T17:43:58.162Z,999.9
2017-08-24T17:44:59.567Z,999.8
2017-08-24T17:46:01.042Z,999.8
2017-08-24T17:47:02.441Z,999.8
2017-08-24T17:48:04.051Z,999.8
2017-08-24T17:49:05.453Z,999.8
2017-08-24T17:50:06.906Z,999.8
2017-08-24T17:51:08.319Z,999.8
2017-08-24T17:52:09.727Z,999.8
2017-08-24T17:53:11.228Z,999.8
2017-08-24T17:54:12.688Z,999.8
2017-08-24T17:55:14.091Z,999.8
2017-08-24T17:56:15.549Z,999.8
2017-08-24T17:57:16.952Z,999.8
2017-08-24T17:58:18.429Z,999.9
2017-08-24T17:59:19.830Z,999.9
2017-08-24T18:00:21.311Z,999.9
2017-08-24T18:01:22.709Z,999.9
2017-08-24T18:02:24.191Z,999.9
2017-08-24T18:03:25.591Z,1000.0
2017-08-24T18:04:27.072Z,999.9
2017-08-24T18:05:28.472Z,1000.0
2017-08-24T18:06:29.952Z,1000.0
2017-08-24T18:07:31.375Z,1000.0
2017-08-24T18:08:32.889Z,1000.0
2017-08-24T18:09:34.267Z,1000.0
2017-08-24T18:10:35.714Z,1000.0
2017-08-24T18:11:37.116Z,1000.1
2017-08-24T18:12:38.592Z,1000.0
2017-08-24T18:13:39.997Z,1000.1
2017-08-24T18:14:41.472Z,1000.1
2017-08-24T18:15:42.893Z,1000.1
2017-08-24T18:16:44.359Z,1000.2
2017-08-24T18:17:45.759Z,1000.2
2017-08-24T18:18:47.235Z,1000.2
2017-08-24T18:19:48.638Z,1000.2
2017-08-24T18:20:50.039Z,1000.2
2017-08-24T18:21:51.453Z,1000.2
2017-08-24T18:22:52.911Z,1000.2
2017-08-24T18:23:54.318Z,1000.3
2017-08-24T18:24:55.774Z,1000.3
2017-08-24T18:25:57.173Z,1000.2
2017-08-24T18:26:58.574Z,1000.2
2017-08-24T18:27:59.996Z,1000.2
2017-08-24T18:29:01.394Z,1000.2
2017-08-24T18:30:02.798Z,1000.1
2017-08-24T18:31:04.217Z,1000.2
2017-08-24T18:32:05.612Z,1000.1
2017-08-24T18:33:07.102Z,1000.0
2017-08-24T18:34:08.500Z,1000.0
2017-08-24T18:35:09.973Z,999.9
2017-08-24T18:36:11.386Z,999.9
2017-08-24T18:37:12.876Z,999.8
2017-08-24T18:38:14.271Z,999.8
2017-08-24T18:39:16.049Z,999.7
2017-08-24T18:40:17.453Z,999.7
2017-08-24T18:41:18.853Z,999.6
2017-08-24T18:42:20.360Z,999.5
2017-08-24T18:43:21.762Z,999.5
2017-08-24T18:44:23.157Z,999.4
2017-08-24T18:45:25.131Z,999.4
2017-08-24T18:46:26.532Z,999.4
2017-08-24T18:47:27.973Z,999.3
2017-08-24T18:48:29.489Z,999.3
2017-08-24T18:49:30.957Z,999.3
2017-08-24T18:50:32.419Z,999.2
2017-08-24T18:51:34.001Z,999.3
2017-08-24T18:52:35.437Z,999.2
2017-08-24T18:53:36.965Z,999.1
2017-08-24T18:54:38.362Z,999.1
2017-08-24T18:55:39.900Z,999.0
2017-08-24T18:56:41.300Z,999.0
2017-08-24T18:57:42.773Z,999.0
2017-08-24T18:58:44.226Z,999.0
2017-08-24T18:59:45.663Z,999.0
2017-08-24T19:00:47.062Z,999.0
2017-08-24T19:01:48.652Z,999.0
2017-08-24T19:02:50.051Z,999.1
2017-08-24T19:03:51.449Z,999.1
2017-08-24T19:04:52.973Z,999.1
2017-08-24T19:05:54.369Z,999.1
2017-08-24T19:06:55.764Z,999.1
2017-08-24T19:07:57.294Z,999.1
2017-08-24T19:08:58.753Z,999.1
2017-08-24T19:10:00.314Z,999.1
2017-08-24T19:11:02.024Z,999.1
2017-08-24T19:12:03.423Z,999.1
2017-08-24T19:13:05.107Z,999.1
2017-08-24T19:14:06.509Z,999.2
2017-08-24T19:15:08.201Z,999.1
2017-08-24T19:16:09.602Z,999.1
2017-08-24T19:17:11.002Z,999.1
2017-08-24T19:18:12.716Z,999.1
2017-08-24T19:19:14.167Z,999.1
2017-08-24T19:20:15.570Z,999.1
2017-08-24T19:21:17.244Z,999.1
2017-08-24T19:22:18.640Z,999.2
2017-08-24T19:23:20.347Z,999.2
2017-08-24T19:24:21.747Z,999.3
2017-08-24T19:25:23.412Z,999.3
2017-08-24T19:26:24.814Z,999.3
2017-08-24T19:27:26.224Z,999.3
2017-08-24T19:28:27.962Z,999.3
2017-08-24T19:29:29.349Z,999.3
2017-08-24T19:30:30.753Z,999.2
2017-08-24T19:31:32.480Z,999.2
2017-08-24T19:32:33.892Z,999.3
2017-08-24T19:33:35.354Z,999.3
2017-08-24T19:34:36.770Z,999.2
2017-08-24T19:35:38.433Z,999.2
2017-08-24T19:36:39.829Z,999.2
2017-08-24T19:37:41.247Z,999.3
2017-08-24T19:38:42.980Z,999.2
2017-08-24T19:39:44.374Z,999.3
2017-08-24T19:40:45.773Z,999.3
2017-08-24T19:41:47.495Z,999.3
2017-08-24T19:42:48.891Z,999.4
2017-08-24T19:43:50.470Z,999.4
2017-08-24T19:44:51.906Z,999.4
2017-08-24T19:45:53.464Z,999.5
2017-08-24T19:46:54.878Z,999.4
2017-08-24T19:47:56.537Z,999.5
2017-08-24T19:48:57.946Z,999.5
2017-08-24T19:50:01.870Z,999.6
2017-08-24T19:51:03.222Z,999.6
2017-08-24T19:52:05.442Z,999.7
2017-08-24T19:53:06.829Z,999.8
2017-08-24T19:54:08.356Z,999.9
2017-08-24T19:55:09.757Z,999.9
2017-08-24T19:56:11.338Z,1000.0
2017-08-24T19:57:12.738Z,1000.0
2017-08-24T19:58:14.136Z,1000.2
2017-08-24T19:59:15.917Z,1000.2
2017-08-24T20:00:17.541Z,1000.2
2017-08-24T20:01:18.963Z,1000.3
2017-08-24T20:02:20.594Z,1000.4
2017-08-24T20:03:21.991Z,1000.4
2017-08-24T20:04:23.389Z,1000.5
2017-08-24T20:05:24.914Z,1000.5
2017-08-24T20:06:26.314Z,1000.5
2017-08-24T20:07:27.714Z,1000.6
2017-08-24T20:08:29.267Z,1000.6
2017-08-24T20:09:30.646Z,1000.6
2017-08-24T20:10:32.043Z,1000.6
2017-08-24T20:11:33.562Z,1000.7
2017-08-24T20:12:34.959Z,1000.8
2017-08-24T20:13:36.654Z,1000.9
2017-08-24T20:14:38.053Z,1001.0
2017-08-24T20:15:39.730Z,1001.1
2017-08-24T20:16:41.128Z,1001.2
2017-08-24T20:17:42.818Z,1001.2
2017-08-24T20:18:44.210Z,1001.3
2017-08-24T20:19:45.896Z,1001.4
2017-08-24T20:20:47.296Z,1001.3
2017-08-24T20:21:48.988Z,1001.4
2017-08-24T20:22:50.384Z,1001.4
2017-08-24T20:23:51.810Z,1001.4
2017-08-24T20:24:53.508Z,1001.5
2017-08-24T20:25:54.918Z,1001.5
2017-08-24T20:26:56.314Z,1001.5
2017-08-24T20:27:57.841Z,1001.6
2017-08-24T20:28:59.235Z,1001.6
2017-08-24T20:30:00.636Z,1001.6
2017-08-24T20:31:02.150Z,1001.6
2017-08-24T20:32:03.548Z,1001.6
2017-08-24T20:33:04.945Z,1001.6
2017-08-24T20:34:06.686Z,1001.6
2017-08-24T20:35:08.080Z,1001.7
2017-08-24T20:36:09.762Z,1001.6
2017-08-24T20:37:11.161Z,1001.6
2017-08-24T20:38:12.847Z,1001.6
2017-08-24T20:39:14.243Z,1001.6
2017-08-24T20:40:15.933Z,1001.6
2017-08-24T20:41:17.332Z,1001.5
2017-08-24T20:42:18.728Z,1001.5
2017-08-24T20:43:20.254Z,1001.5
2017-08-24T20:44:21.655Z,1001.5
2017-08-24T20:45:23.057Z,1001.6
2017-08-24T20:46:24.574Z,1001.6
2017-08-24T20:47:25.972Z,1001.6
2017-08-24T20:48:27.373Z,1001.6
2017-08-24T20:49:28.896Z,1001.5
2017-08-24T20:50:30.296Z,1001.5
2017-08-24T20:51:31.695Z,1001.5
2017-08-24T20:52:33.217Z,1001.5
2017-08-24T20:53:34.615Z,1001.5
2017-08-24T20:54:36.303Z,1001.5
2017-08-24T20:55:37.700Z,1001.5
2017-08-24T20:56:39.387Z,1001.5
2017-08-24T20:57:40.785Z,1001.5
2017-08-24T20:58:42.192Z,1001.5
2017-08-24T20:59:43.708Z,1001.5
2017-08-24T21:00:45.103Z,1001.5
2017-08-24T21:01:46.505Z,1001.5
2017-08-24T21:02:48.030Z,1001.5
2017-08-24T21:03:49.448Z,1001.5
2017-08-24T21:04:51.036Z,1001.5
2017-08-24T21:05:52.432Z,1001.5
2017-08-24T21:06:53.996Z,1001.5
2017-08-24T21:07:55.394Z,1001.5
2017-08-24T21:08:56.790Z,1001.6
2017-08-24T21:09:58.315Z,1001.6
2017-08-24T21:10:59.714Z,1001.6
2017-08-24T21:12:01.114Z,1001.5
2017-08-24T21:13:02.637Z,1001.6
2017-08-24T21:14:04.047Z,1001.7
2017-08-24T21:15:05.722Z,1001.6
2017-08-24T21:16:07.120Z,1001.6
2017-08-24T21:17:08.808Z,1001.7
2017-08-24T21:18:10.207Z,1001.7
2017-08-24T21:19:11.607Z,1001.7
2017-08-24T21:20:13.128Z,1001.7
2017-08-24T21:21:14.526Z,1001.7
2017-08-24T21:22:15.965Z,1001.8
2017-08-24T21:23:17.654Z,1001.8
2017-08-24T21:24:19.057Z,1001.8
2017-08-24T21:25:20.535Z,1001.8
2017-08-24T21:26:21.934Z,1001.8
2017-08-24T21:27:24.014Z,1001.9
2017-08-24T21:28:25.411Z,1001.9
2017-08-24T21:29:26.912Z,1001.9
2017-08-24T21:30:28.309Z,1001.9
2017-08-24T21:31:29.997Z,1002.0
2017-08-24T21:32:31.397Z,1002.0
2017-08-24T21:33:32.802Z,1002.0
2017-08-24T21:34:35.092Z,1002.0
2017-08-24T21:35:36.494Z,1002.0
2017-08-24T21:36:37.884Z,1002.1
2017-08-24T21:37:39.457Z,1002.1
2017-08-24T21:38:40.871Z,1002.1
2017-08-24T21:39:42.543Z,1002.0
2017-08-24T21:40:43.941Z,1002.1
2017-08-24T21:41:45.630Z,1002.1
2017-08-24T21:42:47.026Z,1002.1
2017-08-24T21:43:48.430Z,1002.0
2017-08-24T21:44:49.949Z,1002.1
2017-08-24T21:45:51.350Z,1002.0
2017-08-24T21:46:52.753Z,1002.1
2017-08-24T21:47:54.271Z,1002.1
2017-08-24T21:48:55.675Z,1002.1
2017-08-24T21:49:57.071Z,1002.0
2017-08-24T21:50:58.592Z,1002.0
2017-08-24T21:51:59.996Z,1002.0
2017-08-24T21:53:01.424Z,1002.0
2017-08-24T21:54:02.913Z,1002.0
2017-08-24T21:55:04.314Z,1002.1
2017-08-24T21:56:05.999Z,1002.0
2017-08-24T21:57:07.395Z,1002.0
2017-08-24T21:58:08.878Z,1002.0
2017-08-24T21:59:10.278Z,1002.0
2017-08-24T22:00:11.683Z,1002.0
2017-08-24T22:01:13.200Z,1002.0
2017-08-24T22:02:14.601Z,1002.0
2017-08-24T22:03:16.003Z,1001.9
2017-08-24T22:04:17.522Z,1002.0
2017-08-24T22:05:18.919Z,1001.9
2017-08-24T22:06:20.318Z,1002.0
2017-08-24T22:07:21.714Z,1002.0
2017-08-24T22:08:23.111Z,1002.0
2017-08-24T22:09:24.726Z,1001.9
2017-08-24T22:10:26.124Z,1002.0
2017-08-24T22:11:27.741Z,1002.0
2017-08-24T22:12:29.146Z,1002.0
2017-08-24T22:13:30.548Z,1002.0
2017-08-24T22:14:32.129Z,1002.0
2017-08-24T22:15:33.528Z,1002.0
2017-08-24T22:16:34.925Z,1002.0
2017-08-24T22:17:36.450Z,1002.0
2017-08-24T22:18:37.850Z,1002.0
2017-08-24T22:19:39.246Z,1002.0
2017-08-24T22:20:40.772Z,1002.0
2017-08-24T22:21:42.171Z,1002.0
2017-08-24T22:22:43.566Z,1002.0
2017-08-24T22:23:45.092Z,1002.0
2017-08-24T22:24:46.496Z,1002.0
2017-08-24T22:25:47.976Z,1002.0
2017-08-24T22:26:49.373Z,1002.1
2017-08-24T22:27:50.863Z,1002.0
2017-08-24T22:28:52.260Z,1002.0
2017-08-24T22:29:53.658Z,1002.0
2017-08-24T22:30:55.074Z,1002.0
2017-08-24T22:31:56.472Z,1001.9
2017-08-24T22:32:57.868Z,1002.0
2017-08-24T22:33:59.291Z,1002.0
2017-08-24T22:35:00.689Z,1002.0
2017-08-24T22:36:02.095Z,1002.0
2017-08-24T22:37:03.511Z,1001.9
2017-08-24T22:38:04.932Z,1002.0
2017-08-24T22:39:06.339Z,1002.0
2017-08-24T22:40:07.830Z,1001.9
2017-08-24T22:41:09.234Z,1002.0